createdAt,value
2023-01-09T00:02:25.427Z,13.84
2023-01-09T00:05:17.995Z,13.85
2023-01-09T00:08:09.057Z,13.86
2023-01-09T00:10:58.857Z,13.86
2023-01-09T00:13:48.830Z,13.85
2023-01-09T00:16:38.830Z,13.86
2023-01-09T00:19:29.534Z,13.87
2023-01-09T00:22:19.763Z,13.87
2023-01-09T00:25:12.070Z,13.87
2023-01-09T00:28:02.362Z,13.88
2023-01-09T00:31:01.040Z,13.86
2023-01-09T00:33:56.270Z,13.86
2023-01-09T00:36:46.548Z,13.84
2023-01-09T00:39:36.594Z,13.84
2023-01-09T00:42:31.122Z,13.84
2023-01-09T00:45:29.061Z,13.85
2023-01-09T00:48:27.119Z,13.86
2023-01-09T00:51:19.323Z,13.87
2023-01-09T00:54:10.669Z,13.87
2023-01-09T00:57:01.547Z,13.88
2023-01-09T00:59:53.267Z,13.88
2023-01-09T01:02:43.632Z,13.88
2023-01-09T01:05:51.195Z,13.88
2023-01-09T01:08:41.218Z,13.88
2023-01-09T01:11:32.581Z,13.89
2023-01-09T01:14:22.496Z,13.89
2023-01-09T01:17:12.729Z,13.83
2023-01-09T01:20:03.434Z,13.71
2023-01-09T01:22:53.367Z,13.55
2023-01-09T01:25:44.617Z,13.48
2023-01-09T01:28:34.871Z,13.51
2023-01-09T01:31:24.757Z,13.56
2023-01-09T01:34:14.370Z,13.59
2023-01-09T01:37:05.846Z,13.63
2023-01-09T01:39:57.789Z,13.67
2023-01-09T01:42:54.733Z,13.71
2023-01-09T01:45:44.621Z,13.74
2023-01-09T01:48:35.235Z,13.77
2023-01-09T01:51:28.187Z,13.79
2023-01-09T01:54:24.840Z,13.79
2023-01-09T01:57:15.340Z,13.81
2023-01-09T02:00:06.716Z,13.82
2023-01-09T02:02:57.591Z,13.83
2023-01-09T02:05:48.435Z,13.84
2023-01-09T02:08:39.749Z,13.84
2023-01-09T02:11:30.384Z,13.85
2023-01-09T02:14:23.356Z,13.85
2023-01-09T02:17:23.940Z,13.86
2023-01-09T02:20:45.088Z,13.87
2023-01-09T02:24:06.932Z,13.88
2023-01-09T02:27:29.987Z,13.89
2023-01-09T02:30:32.784Z,13.90
2023-01-09T02:33:37.840Z,13.92
2023-01-09T02:36:34.504Z,13.94
2023-01-09T02:39:33.510Z,13.94
2023-01-09T02:42:27.103Z,13.95
2023-01-09T02:45:17.675Z,13.95
2023-01-09T02:48:09.612Z,13.96
2023-01-09T02:51:11.634Z,13.94
2023-01-09T02:54:23.203Z,13.93
2023-01-09T02:57:35.021Z,13.93
2023-01-09T03:00:35.223Z,13.90
2023-01-09T03:03:32.908Z,13.83
2023-01-09T03:06:30.987Z,13.81
2023-01-09T03:09:24.913Z,13.81
2023-01-09T03:12:18.759Z,13.81
2023-01-09T03:15:12.778Z,13.76
2023-01-09T03:18:05.770Z,13.73
2023-01-09T03:20:57.228Z,13.73
2023-01-09T03:23:52.662Z,13.70
2023-01-09T03:26:43.626Z,13.66
2023-01-09T03:29:33.943Z,13.55
2023-01-09T03:32:24.434Z,13.44
2023-01-09T03:35:15.161Z,13.32
2023-01-09T03:38:07.309Z,13.28
2023-01-09T03:40:58.498Z,13.25
2023-01-09T03:43:49.364Z,13.21
2023-01-09T03:46:39.770Z,13.23
2023-01-09T03:49:30.384Z,13.27
2023-01-09T03:52:20.589Z,13.29
2023-01-09T03:55:12.613Z,13.31
2023-01-09T03:58:04.016Z,13.35
2023-01-09T04:00:58.715Z,13.38
2023-01-09T04:03:49.399Z,13.40
2023-01-09T04:06:39.554Z,13.40
2023-01-09T04:09:29.940Z,13.39
2023-01-09T04:12:20.786Z,13.38
2023-01-09T04:15:12.911Z,13.37
2023-01-09T04:18:04.080Z,13.37
2023-01-09T04:20:55.444Z,13.37
2023-01-09T04:23:46.137Z,13.38
2023-01-09T04:26:36.623Z,13.39
2023-01-09T04:29:26.948Z,13.41
2023-01-09T04:32:17.440Z,13.42
2023-01-09T04:35:09.675Z,13.42
2023-01-09T04:38:01.015Z,13.41
2023-01-09T04:40:51.789Z,13.39
2023-01-09T04:43:42.469Z,13.37
2023-01-09T04:46:32.795Z,13.37
2023-01-09T04:49:23.969Z,13.39
2023-01-09T04:52:13.904Z,13.41
2023-01-09T04:55:05.299Z,13.44
2023-01-09T04:57:55.066Z,13.46
2023-01-09T05:00:45.177Z,13.48
2023-01-09T05:03:35.264Z,13.48
2023-01-09T05:06:25.558Z,13.48
2023-01-09T05:09:16.560Z,13.48
2023-01-09T05:12:07.774Z,13.50
2023-01-09T05:14:58.997Z,13.50
2023-01-09T05:17:48.804Z,13.52
2023-01-09T05:20:38.701Z,13.52
2023-01-09T05:23:28.447Z,13.51
2023-01-09T05:26:18.335Z,13.51
2023-01-09T05:29:08.433Z,13.50
2023-01-09T05:31:58.423Z,13.51
2023-01-09T05:34:48.256Z,13.52
2023-01-09T05:37:38.674Z,13.55
2023-01-09T05:40:39.625Z,13.56
2023-01-09T05:43:31.099Z,13.56
2023-01-09T05:46:22.045Z,13.58
2023-01-09T05:49:12.558Z,13.58
2023-01-09T05:52:03.026Z,13.59
2023-01-09T05:54:53.539Z,13.61
2023-01-09T05:57:44.235Z,13.62
2023-01-09T06:00:35.147Z,13.62
2023-01-09T06:03:25.869Z,13.64
2023-01-09T06:06:16.219Z,13.65
2023-01-09T06:09:06.670Z,13.67
2023-01-09T06:11:56.986Z,13.68
2023-01-09T06:14:47.382Z,13.70
2023-01-09T06:17:38.124Z,13.72
2023-01-09T06:20:28.658Z,13.72
2023-01-09T06:23:19.024Z,13.72
2023-01-09T06:26:10.171Z,13.72
2023-01-09T06:29:01.263Z,13.68
2023-01-09T06:31:51.968Z,13.67
2023-01-09T06:34:42.377Z,13.65
2023-01-09T06:37:33.676Z,13.64
2023-01-09T06:40:24.648Z,13.64
2023-01-09T06:43:15.676Z,13.64
2023-01-09T06:46:06.910Z,13.62
2023-01-09T06:48:57.875Z,13.61
2023-01-09T06:51:48.029Z,13.60
2023-01-09T06:54:38.358Z,13.57
2023-01-09T06:57:28.218Z,13.55
2023-01-09T07:00:19.062Z,13.50
2023-01-09T07:03:08.740Z,13.48
2023-01-09T07:05:58.355Z,13.47
2023-01-09T07:08:48.609Z,13.42
2023-01-09T07:11:38.552Z,13.47
2023-01-09T07:14:28.346Z,13.73
2023-01-09T07:17:18.459Z,13.99
2023-01-09T07:20:11.179Z,14.18
2023-01-09T07:23:01.499Z,14.45
2023-01-09T07:25:53.982Z,14.73
2023-01-09T07:28:43.925Z,14.92
2023-01-09T07:31:34.359Z,14.98
2023-01-09T07:34:24.824Z,15.04
2023-01-09T07:37:14.984Z,15.16
2023-01-09T07:40:06.497Z,15.28
2023-01-09T07:42:57.322Z,15.30
2023-01-09T07:45:49.444Z,15.28
2023-01-09T07:48:39.791Z,15.31
2023-01-09T07:51:29.969Z,15.34
2023-01-09T07:54:20.255Z,15.36
2023-01-09T07:57:10.850Z,15.38
2023-01-09T08:00:03.654Z,15.43
2023-01-09T08:03:02.235Z,15.49
2023-01-09T08:05:52.974Z,15.56
2023-01-09T08:08:43.601Z,15.63
2023-01-09T08:11:35.108Z,15.71
2023-01-09T08:14:25.823Z,15.81
2023-01-09T08:17:16.505Z,15.89
2023-01-09T08:20:08.069Z,15.98
2023-01-09T08:22:58.419Z,16.08
2023-01-09T08:25:49.349Z,16.19
2023-01-09T08:28:39.538Z,16.33
2023-01-09T08:31:30.286Z,16.45
2023-01-09T08:34:20.871Z,16.60
2023-01-09T08:37:10.901Z,16.99
2023-01-09T08:40:00.992Z,18.23
2023-01-09T08:43:09.170Z,19.89
2023-01-09T08:46:17.369Z,21.64
2023-01-09T08:49:08.070Z,23.20
2023-01-09T08:51:59.989Z,24.04
2023-01-09T08:54:50.028Z,24.41
2023-01-09T08:57:42.124Z,24.64
2023-01-09T09:00:32.348Z,24.63
2023-01-09T09:03:23.037Z,24.07
2023-01-09T09:06:13.704Z,23.81
2023-01-09T09:09:04.083Z,23.55
2023-01-09T09:11:54.539Z,23.25
2023-01-09T09:15:10.271Z,22.68
2023-01-09T09:18:02.279Z,21.89
2023-01-09T09:20:52.327Z,21.12
2023-01-09T09:23:42.326Z,20.61
2023-01-09T09:26:33.036Z,20.15
2023-01-09T09:29:23.328Z,19.67
2023-01-09T09:32:13.925Z,19.23
2023-01-09T09:35:04.194Z,18.78
2023-01-09T09:37:59.942Z,18.40
2023-01-09T09:41:30.446Z,18.17
2023-01-09T09:44:53.343Z,18.02
2023-01-09T09:47:53.878Z,18.01
2023-01-09T09:51:07.901Z,17.98
2023-01-09T09:54:02.429Z,17.96
2023-01-09T09:56:56.063Z,18.06
2023-01-09T09:59:51.540Z,18.19
2023-01-09T10:02:50.721Z,18.17
2023-01-09T10:05:47.165Z,18.10
2023-01-09T10:08:46.544Z,17.98
2023-01-09T10:11:44.084Z,17.95
2023-01-09T10:14:34.198Z,17.89
2023-01-09T10:17:44.538Z,17.83
2023-01-09T10:20:56.625Z,17.79
2023-01-09T10:24:10.147Z,17.81
2023-01-09T10:27:15.226Z,17.83
2023-01-09T10:30:24.558Z,17.87
2023-01-09T10:33:31.793Z,18.09
2023-01-09T10:36:40.925Z,18.32
2023-01-09T10:39:37.774Z,18.49
2023-01-09T10:42:33.644Z,18.61
2023-01-09T10:45:30.191Z,18.62
2023-01-09T10:48:27.426Z,18.73
2023-01-09T10:51:22.604Z,18.84
2023-01-09T10:54:18.589Z,18.95
2023-01-09T10:57:14.803Z,19.07
2023-01-09T11:00:07.031Z,19.13
2023-01-09T11:02:57.142Z,19.13
2023-01-09T11:05:51.294Z,19.03
2023-01-09T11:08:44.444Z,18.83
2023-01-09T11:11:39.180Z,18.63
2023-01-09T11:14:31.637Z,18.52
2023-01-09T11:17:23.733Z,18.41
2023-01-09T11:20:19.807Z,18.30
2023-01-09T11:23:30.133Z,18.15
2023-01-09T11:26:27.362Z,17.98
2023-01-09T11:29:19.302Z,17.85
2023-01-09T11:32:22.199Z,17.73
2023-01-09T11:35:33.958Z,17.62
2023-01-09T11:38:25.482Z,17.56
2023-01-09T11:41:23.681Z,17.52
2023-01-09T11:44:17.260Z,17.44
2023-01-09T11:47:37.300Z,17.37
2023-01-09T11:50:31.296Z,17.28
2023-01-09T11:53:22.604Z,17.23
2023-01-09T11:56:15.681Z,17.25
2023-01-09T11:59:09.869Z,17.32
2023-01-09T12:02:29.464Z,17.35
2023-01-09T12:05:33.071Z,17.36
2023-01-09T12:08:34.892Z,17.37
2023-01-09T12:11:36.305Z,17.35
2023-01-09T12:14:44.200Z,17.32
2023-01-09T12:17:55.250Z,17.35
2023-01-09T12:21:09.231Z,17.33
2023-01-09T12:24:22.407Z,17.30
2023-01-09T12:27:26.188Z,17.28
2023-01-09T12:30:27.570Z,17.20
2023-01-09T12:33:32.221Z,17.14
2023-01-09T12:36:31.210Z,17.15
2023-01-09T12:39:31.600Z,17.10
2023-01-09T12:42:44.708Z,17.00
2023-01-09T12:45:47.612Z,16.95
2023-01-09T12:48:54.329Z,17.01
2023-01-09T12:51:49.583Z,17.12
2023-01-09T12:54:45.101Z,17.22
2023-01-09T12:57:39.997Z,17.31
2023-01-09T13:00:33.550Z,17.37
2023-01-09T13:03:31.183Z,17.35
2023-01-09T13:06:24.435Z,17.34
2023-01-09T13:09:24.354Z,17.32
2023-01-09T13:12:21.629Z,17.28
2023-01-09T13:15:28.945Z,17.24
2023-01-09T13:18:24.604Z,17.28
2023-01-09T13:21:15.996Z,17.29
2023-01-09T13:24:15.824Z,17.30
2023-01-09T13:27:10.644Z,17.35
2023-01-09T13:30:08.172Z,17.40
2023-01-09T13:33:10.674Z,17.44
2023-01-09T13:36:03.588Z,17.42
2023-01-09T13:38:55.380Z,17.34
2023-01-09T13:42:11.071Z,17.30
2023-01-09T13:45:21.208Z,17.38
2023-01-09T13:48:40.884Z,17.45
2023-01-09T13:51:58.368Z,17.57
2023-01-09T13:55:36.236Z,17.47
2023-01-09T13:58:29.281Z,17.31
2023-01-09T14:01:47.705Z,17.23
2023-01-09T14:04:46.548Z,17.12
2023-01-09T14:07:37.525Z,17.02
2023-01-09T14:10:30.857Z,16.89
2023-01-09T14:13:23.462Z,16.74
2023-01-09T14:16:23.042Z,16.62
2023-01-09T14:19:27.523Z,16.49
2023-01-09T14:22:38.097Z,16.43
2023-01-09T14:25:40.291Z,16.39
2023-01-09T14:28:32.710Z,16.31
2023-01-09T14:31:34.052Z,16.24
2023-01-09T14:34:37.421Z,16.19
2023-01-09T14:37:31.849Z,16.14
2023-01-09T14:40:25.007Z,16.14
2023-01-09T14:43:25.978Z,16.13
2023-01-09T14:46:19.141Z,16.13
2023-01-09T14:49:24.027Z,16.07
2023-01-09T14:52:25.158Z,15.96
2023-01-09T14:55:24.810Z,15.85
2023-01-09T14:58:20.615Z,15.78
2023-01-09T15:01:16.973Z,15.78
2023-01-09T15:04:14.890Z,15.78
2023-01-09T15:07:06.006Z,15.74
2023-01-09T15:09:56.219Z,15.67
2023-01-09T15:12:48.723Z,15.64
2023-01-09T15:15:38.892Z,15.61
2023-01-09T15:18:34.569Z,15.58
2023-01-09T15:21:27.268Z,15.57
2023-01-09T15:24:27.324Z,15.61
2023-01-09T15:27:19.385Z,15.68
2023-01-09T15:30:23.768Z,15.75
2023-01-09T15:33:16.669Z,15.80
2023-01-09T15:36:15.366Z,15.84
2023-01-09T15:39:10.047Z,15.86
2023-01-09T15:42:19.147Z,15.87
2023-01-09T15:45:19.681Z,15.87
2023-01-09T15:48:26.072Z,15.86
2023-01-09T15:51:18.820Z,15.84
2023-01-09T15:54:14.822Z,15.82
2023-01-09T15:57:39.209Z,15.79
2023-01-09T16:00:44.206Z,15.75
2023-01-09T16:03:37.516Z,15.72
2023-01-09T16:06:30.323Z,15.66
2023-01-09T16:09:27.491Z,15.62
2023-01-09T16:12:23.719Z,15.58
2023-01-09T16:15:21.892Z,15.55
2023-01-09T16:18:24.050Z,15.51
2023-01-09T16:21:34.727Z,15.47
2023-01-09T16:24:40.726Z,15.43
2023-01-09T16:27:33.421Z,15.38
2023-01-09T16:30:29.309Z,15.34
2023-01-09T16:33:25.257Z,15.29
2023-01-09T16:36:17.061Z,15.24
2023-01-09T16:39:08.537Z,15.19
2023-01-09T16:42:17.506Z,15.16
2023-01-09T16:45:09.545Z,15.15
2023-01-09T16:48:00.437Z,15.14
2023-01-09T16:50:50.789Z,15.13
2023-01-09T16:53:41.718Z,15.12
2023-01-09T16:56:33.600Z,15.10
2023-01-09T16:59:26.724Z,15.07
2023-01-09T17:02:20.610Z,15.10
2023-01-09T17:05:11.593Z,15.12
2023-01-09T17:08:02.085Z,15.13
2023-01-09T17:10:53.423Z,15.15
2023-01-09T17:13:43.677Z,15.15
2023-01-09T17:16:36.048Z,15.16
2023-01-09T17:19:26.339Z,15.18
2023-01-09T17:22:17.343Z,15.20
2023-01-09T17:25:28.251Z,15.22
2023-01-09T17:28:33.100Z,15.27
2023-01-09T17:31:23.033Z,15.33
2023-01-09T17:34:12.670Z,15.40
2023-01-09T17:37:04.687Z,15.47
2023-01-09T17:40:00.010Z,15.55
2023-01-09T17:42:51.312Z,15.61
2023-01-09T17:45:43.269Z,15.65
2023-01-09T17:48:34.929Z,15.69
2023-01-09T17:51:25.229Z,15.74
2023-01-09T17:54:15.947Z,15.76
2023-01-09T17:57:06.621Z,15.79
2023-01-09T17:59:56.859Z,15.82
2023-01-09T18:02:47.582Z,15.86
2023-01-09T18:05:38.605Z,15.89
2023-01-09T18:08:28.932Z,15.91
2023-01-09T18:11:20.657Z,15.93
2023-01-09T18:14:13.536Z,15.96
2023-01-09T18:17:05.600Z,16.00
2023-01-09T18:19:55.115Z,16.03
2023-01-09T18:22:44.779Z,16.05
2023-01-09T18:25:35.213Z,16.09
2023-01-09T18:28:25.479Z,16.10
2023-01-09T18:31:17.542Z,16.10
2023-01-09T18:34:07.738Z,16.12
2023-01-09T18:36:57.553Z,16.13
2023-01-09T18:39:47.120Z,16.14
2023-01-09T18:42:36.967Z,16.15
2023-01-09T18:45:27.305Z,16.18
2023-01-09T18:48:17.501Z,16.26
2023-01-09T18:51:08.999Z,16.27
2023-01-09T18:53:59.696Z,16.24
2023-01-09T18:56:49.985Z,16.21
2023-01-09T18:59:40.069Z,16.19
2023-01-09T19:02:30.270Z,16.16
2023-01-09T19:05:20.279Z,16.14
2023-01-09T19:08:10.178Z,16.14
2023-01-09T19:11:00.224Z,16.16
2023-01-09T19:13:50.774Z,16.18
2023-01-09T19:16:40.471Z,16.21
2023-01-09T19:19:30.910Z,16.21
2023-01-09T19:22:20.951Z,16.22
2023-01-09T19:25:12.532Z,16.21
2023-01-09T19:28:02.140Z,16.21
2023-01-09T19:30:57.391Z,16.20
2023-01-09T19:33:47.535Z,16.18
2023-01-09T19:36:38.068Z,16.16
2023-01-09T19:39:28.215Z,16.13
2023-01-09T19:42:19.567Z,16.12
2023-01-09T19:45:12.536Z,16.16
2023-01-09T19:48:03.199Z,16.23
2023-01-09T19:51:01.408Z,16.25
2023-01-09T19:56:49.162Z,16.26
2023-01-09T19:59:43.470Z,16.22
2023-01-09T20:02:34.139Z,16.17
2023-01-09T20:05:25.313Z,16.14
2023-01-09T20:08:17.509Z,16.10
2023-01-09T20:11:08.571Z,16.06
2023-01-09T20:13:59.709Z,16.03
2023-01-09T20:16:52.497Z,16.00
2023-01-09T20:19:45.957Z,15.96
2023-01-09T20:22:37.882Z,15.97
2023-01-09T20:25:28.404Z,16.02
2023-01-09T20:28:19.593Z,16.04
2023-01-09T20:31:12.870Z,16.05
2023-01-09T20:34:03.882Z,16.04
2023-01-09T20:36:55.391Z,16.01
2023-01-09T20:39:46.087Z,15.98
2023-01-09T20:42:36.595Z,15.95
2023-01-09T20:45:27.471Z,15.93
2023-01-09T20:48:18.300Z,15.90
2023-01-09T20:51:10.025Z,15.86
2023-01-09T20:54:00.974Z,15.81
2023-01-09T20:56:50.926Z,15.78
2023-01-09T20:59:41.207Z,15.77
2023-01-09T21:02:30.903Z,15.76
2023-01-09T21:05:21.395Z,15.76
2023-01-09T21:08:11.830Z,15.75
2023-01-09T21:11:02.875Z,15.73
2023-01-09T21:13:53.881Z,15.72
2023-01-09T21:16:47.918Z,15.72
2023-01-09T21:19:44.219Z,15.69
2023-01-09T21:22:37.356Z,15.66
2023-01-09T21:25:27.241Z,15.61
2023-01-09T21:28:19.334Z,15.58
2023-01-09T21:31:11.725Z,15.55
2023-01-09T21:34:03.350Z,15.54
2023-01-09T21:36:54.548Z,15.53
2023-01-09T21:39:45.074Z,15.53
2023-01-09T21:42:52.941Z,15.52
2023-01-09T21:46:01.427Z,15.50
2023-01-09T21:48:52.197Z,15.49
2023-01-09T21:51:43.045Z,15.48
2023-01-09T21:54:34.298Z,15.47
2023-01-09T21:57:25.172Z,15.47
2023-01-09T22:00:18.134Z,15.48
2023-01-09T22:03:09.452Z,15.49
2023-01-09T22:06:04.675Z,15.49
2023-01-09T22:08:57.192Z,15.48
2023-01-09T22:11:48.340Z,15.46
2023-01-09T22:14:39.757Z,15.45
2023-01-09T22:17:31.611Z,15.43
2023-01-09T22:20:22.772Z,15.43
2023-01-09T22:23:13.286Z,15.42
2023-01-09T22:26:10.582Z,15.42
2023-01-09T22:29:01.263Z,15.43
2023-01-09T22:31:51.725Z,15.44
2023-01-09T22:34:42.473Z,15.46
2023-01-09T22:37:32.997Z,15.47
2023-01-09T22:40:24.753Z,15.47
2023-01-09T22:43:17.048Z,15.48
2023-01-09T22:46:11.387Z,15.48
2023-01-09T22:49:05.262Z,15.47
2023-01-09T22:51:55.084Z,15.49
2023-01-09T22:54:44.869Z,15.48
2023-01-09T22:57:34.917Z,15.48
2023-01-09T23:00:25.390Z,15.49
2023-01-09T23:03:15.656Z,15.49
2023-01-09T23:06:06.923Z,15.50
2023-01-09T23:08:56.579Z,15.51
2023-01-09T23:12:05.843Z,15.52
2023-01-09T23:14:55.615Z,15.53
2023-01-09T23:17:46.283Z,15.52
2023-01-09T23:20:36.603Z,15.53
2023-01-09T23:23:28.232Z,15.54
2023-01-09T23:26:17.774Z,15.55
2023-01-09T23:29:08.071Z,15.55
2023-01-09T23:31:58.318Z,15.56
2023-01-09T23:34:49.586Z,15.56
2023-01-09T23:37:40.673Z,15.56
2023-01-09T23:40:31.732Z,15.56
2023-01-09T23:43:23.055Z,15.57
2023-01-09T23:46:13.909Z,15.58
2023-01-09T23:49:05.202Z,15.58
2023-01-09T23:51:56.602Z,15.60
2023-01-09T23:54:47.499Z,15.60
2023-01-09T23:57:38.446Z,15.61
